createdAt,value
2018-05-08T00:01:51.100Z,3.70
2018-05-08T00:04:18.628Z,3.57
2018-05-08T00:06:47.206Z,3.00
2018-05-08T00:09:15.488Z,4.27
2018-05-08T00:11:43.778Z,4.20
2018-05-08T00:14:11.355Z,4.03
2018-05-08T00:16:38.877Z,4.27
2018-05-08T00:19:07.186Z,4.23
2018-05-08T00:21:34.738Z,4.30
2018-05-08T00:24:02.469Z,4.10
2018-05-08T00:26:30.781Z,3.83
2018-05-08T00:28:58.328Z,4.03
2018-05-08T00:31:25.866Z,4.30
2018-05-08T00:33:54.147Z,4.23
2018-05-08T00:36:22.477Z,4.03
2018-05-08T00:38:49.989Z,4.33
2018-05-08T00:41:17.511Z,3.87
2018-05-08T00:43:45.084Z,3.80
2018-05-08T00:46:13.370Z,4.13
2018-05-08T00:48:41.650Z,4.40
2018-05-08T00:51:09.194Z,4.00
2018-05-08T00:53:37.469Z,4.70
2018-05-08T00:56:05.763Z,4.63
2018-05-08T00:58:33.314Z,4.37
2018-05-08T01:01:01.723Z,3.90
2018-05-08T01:03:29.252Z,4.97
2018-05-08T01:05:57.557Z,4.10
2018-05-08T01:08:25.079Z,4.40
2018-05-08T01:10:53.385Z,4.07
2018-05-08T01:13:20.967Z,4.07
2018-05-08T01:15:48.532Z,4.70
2018-05-08T01:18:16.047Z,5.30
2018-05-08T01:20:43.599Z,4.87
2018-05-08T01:23:11.880Z,5.93
2018-05-08T01:25:40.172Z,5.03
2018-05-08T01:28:08.089Z,5.57
2018-05-08T01:30:35.616Z,4.17
2018-05-08T01:33:03.149Z,5.30
2018-05-08T01:35:30.704Z,5.37
2018-05-08T01:37:58.217Z,4.90
2018-05-08T01:40:25.747Z,4.37
2018-05-08T01:42:53.308Z,4.80
2018-05-08T01:45:20.845Z,4.30
2018-05-08T01:47:48.378Z,4.07
2018-05-08T01:50:17.344Z,4.57
2018-05-08T01:52:44.876Z,4.60
2018-05-08T01:55:12.392Z,4.80
2018-05-08T01:57:39.950Z,4.53
2018-05-08T02:00:07.453Z,4.33
2018-05-08T02:02:34.964Z,4.80
2018-05-08T02:05:02.507Z,4.60
2018-05-08T02:07:30.782Z,4.80
2018-05-08T02:09:59.058Z,5.10
2018-05-08T02:12:27.375Z,4.20
2018-05-08T02:14:54.899Z,5.00
2018-05-08T02:17:23.193Z,4.20
2018-05-08T02:19:50.744Z,5.00
2018-05-08T02:22:18.279Z,4.70
2018-05-08T02:24:46.578Z,5.03
2018-05-08T02:27:14.125Z,4.50
2018-05-08T02:29:42.422Z,4.80
2018-05-08T02:32:09.939Z,5.00
2018-05-08T02:34:37.480Z,4.53
2018-05-08T02:37:04.995Z,4.27
2018-05-08T02:39:32.510Z,5.40
2018-05-08T02:42:00.064Z,4.77
2018-05-08T02:44:27.589Z,6.00
2018-05-08T02:46:55.124Z,4.90
2018-05-08T02:49:22.672Z,5.50
2018-05-08T02:51:50.218Z,5.07
2018-05-08T02:54:18.507Z,5.07
2018-05-08T02:56:46.411Z,5.47
2018-05-08T02:59:13.946Z,5.20
2018-05-08T03:01:41.533Z,5.43
2018-05-08T03:04:09.082Z,5.20
2018-05-08T03:06:36.632Z,5.40
2018-05-08T03:09:04.160Z,5.63
2018-05-08T03:11:32.480Z,5.07
2018-05-08T03:13:59.992Z,5.60
2018-05-08T03:16:28.276Z,5.57
2018-05-08T03:18:55.867Z,5.47
2018-05-08T03:21:23.458Z,5.10
2018-05-08T03:23:50.981Z,4.97
2018-05-08T03:26:18.565Z,4.83
2018-05-08T03:28:46.094Z,5.00
2018-05-08T03:31:14.172Z,5.70
2018-05-08T03:33:41.722Z,4.60
2018-05-08T03:36:09.238Z,5.57
2018-05-08T03:38:37.540Z,5.30
2018-05-08T03:41:05.931Z,6.33
2018-05-08T03:43:33.463Z,4.93
2018-05-08T03:46:01.744Z,5.60
2018-05-08T03:48:30.060Z,5.90
2018-05-08T03:50:58.437Z,5.50
2018-05-08T03:53:25.958Z,5.07
2018-05-08T03:55:53.506Z,6.70
2018-05-08T03:58:21.794Z,5.33
2018-05-08T04:01:01.262Z,6.10
2018-05-08T04:03:40.611Z,5.33
2018-05-08T04:06:11.860Z,5.40
2018-05-08T04:08:39.378Z,5.73
2018-05-08T04:11:06.905Z,5.33
2018-05-08T04:13:35.205Z,6.10
2018-05-08T04:16:02.760Z,6.57
2018-05-08T04:18:30.352Z,5.83
2018-05-08T04:20:57.989Z,5.83
2018-05-08T04:23:25.451Z,5.87
2018-05-08T04:25:52.965Z,6.03
2018-05-08T04:28:20.587Z,5.80
2018-05-08T04:30:48.128Z,5.73
2018-05-08T04:33:15.644Z,6.00
2018-05-08T04:35:43.194Z,5.60
2018-05-08T04:38:10.705Z,5.80
2018-05-08T04:40:38.228Z,6.40
2018-05-08T04:43:06.538Z,6.20
2018-05-08T04:45:34.078Z,6.00
2018-05-08T04:48:01.812Z,6.30
2018-05-08T04:50:29.357Z,5.87
2018-05-08T04:52:56.881Z,5.70
2018-05-08T04:55:24.401Z,5.70
2018-05-08T04:57:52.723Z,5.00
2018-05-08T05:00:20.248Z,5.77
2018-05-08T05:02:48.631Z,5.70
2018-05-08T05:05:16.204Z,5.27
2018-05-08T05:07:43.768Z,5.80
2018-05-08T05:10:11.339Z,6.10
2018-05-08T05:12:38.888Z,5.70
2018-05-08T05:15:06.454Z,5.70
2018-05-08T05:17:33.994Z,5.60
2018-05-08T05:20:01.538Z,4.90
2018-05-08T05:22:29.136Z,5.10
2018-05-08T05:24:56.664Z,5.43
2018-05-08T05:27:24.233Z,6.03
2018-05-08T05:29:51.786Z,5.27
2018-05-08T05:32:19.319Z,5.20
2018-05-08T05:34:48.022Z,5.50
2018-05-08T05:37:15.604Z,5.27
2018-05-08T05:39:43.165Z,4.70
2018-05-08T05:42:10.719Z,5.37
2018-05-08T05:44:38.239Z,5.47
2018-05-08T05:47:06.536Z,5.20
2018-05-08T05:49:34.096Z,4.60
2018-05-08T05:52:01.678Z,4.60
2018-05-08T05:54:29.209Z,4.90
2018-05-08T05:56:56.759Z,5.40
2018-05-08T05:59:24.267Z,4.70
2018-05-08T06:01:51.793Z,5.13
2018-05-08T06:04:19.347Z,4.40
2018-05-08T06:06:46.879Z,5.17
2018-05-08T06:09:15.157Z,5.00
2018-05-08T06:11:43.463Z,5.13
2018-05-08T06:14:11.021Z,5.37
2018-05-08T06:16:38.545Z,4.93
2018-05-08T06:19:06.867Z,5.00
2018-05-08T06:21:34.376Z,4.83
2018-05-08T06:24:02.705Z,4.90
2018-05-08T06:26:30.448Z,5.43
2018-05-08T06:28:57.902Z,5.10
2018-05-08T06:31:25.442Z,4.83
2018-05-08T06:33:53.746Z,5.20
2018-05-08T06:36:21.272Z,5.20
2018-05-08T06:38:48.798Z,4.73
2018-05-08T06:41:16.337Z,4.67
2018-05-08T06:43:43.863Z,4.33
2018-05-08T06:46:11.374Z,5.17
2018-05-08T06:48:38.917Z,4.57
2018-05-08T06:51:06.433Z,4.50
2018-05-08T06:53:33.957Z,4.30
2018-05-08T06:56:01.511Z,5.33
2018-05-08T06:58:29.023Z,5.00
2018-05-08T07:00:56.534Z,5.13
2018-05-08T07:03:24.089Z,5.20
2018-05-08T07:05:51.716Z,5.70
2018-05-08T07:08:19.248Z,5.50
2018-05-08T07:10:46.831Z,5.40
2018-05-08T07:13:14.369Z,4.97
2018-05-08T07:15:42.006Z,4.93
2018-05-08T07:18:09.480Z,5.20
2018-05-08T07:20:37.309Z,3.43
2018-05-08T07:23:04.819Z,4.50
2018-05-08T07:25:32.360Z,4.50
2018-05-08T07:27:59.873Z,4.53
2018-05-08T07:30:27.505Z,4.37
2018-05-08T07:32:55.051Z,3.80
2018-05-08T07:35:22.571Z,4.83
2018-05-08T07:37:50.872Z,4.80
2018-05-08T07:40:18.429Z,4.27
2018-05-08T07:42:45.964Z,4.50
2018-05-08T07:45:14.278Z,4.50
2018-05-08T07:47:41.824Z,4.57
2018-05-08T07:50:09.395Z,4.30
2018-05-08T07:52:36.953Z,5.00
2018-05-08T07:55:04.544Z,4.70
2018-05-08T07:57:32.194Z,4.80
2018-05-08T07:59:59.736Z,4.87
2018-05-08T08:02:27.300Z,4.63
2018-05-08T08:04:54.825Z,4.57
2018-05-08T08:07:23.102Z,5.30
2018-05-08T08:09:50.669Z,4.83
2018-05-08T08:12:18.497Z,4.63
2018-05-08T08:14:45.970Z,3.90
2018-05-08T08:17:14.283Z,3.60
2018-05-08T08:19:41.803Z,4.00
2018-05-08T08:22:10.181Z,3.90
2018-05-08T08:24:38.499Z,3.50
2018-05-08T08:27:06.009Z,4.07
2018-05-08T08:29:33.524Z,3.77
2018-05-08T08:32:01.080Z,3.87
2018-05-08T08:34:28.601Z,3.40
2018-05-08T08:36:56.891Z,3.53
2018-05-08T08:39:24.540Z,4.23
2018-05-08T08:41:52.122Z,3.43
2018-05-08T08:44:19.698Z,3.30
2018-05-08T08:46:47.287Z,3.50
2018-05-08T08:49:14.815Z,3.40
2018-05-08T08:51:42.355Z,3.47
2018-05-08T08:54:09.934Z,3.37
2018-05-08T08:56:37.456Z,3.23
2018-05-08T08:59:05.058Z,3.87
2018-05-08T09:01:32.702Z,3.70
2018-05-08T09:04:00.312Z,3.57
2018-05-08T09:06:27.818Z,3.73
2018-05-08T09:08:55.372Z,3.90
2018-05-08T09:11:22.906Z,4.27
2018-05-08T09:13:50.459Z,3.40
2018-05-08T09:16:18.777Z,4.23
2018-05-08T09:18:46.322Z,4.30
2018-05-08T09:21:13.846Z,3.30
2018-05-08T09:23:42.167Z,3.83
2018-05-08T09:26:09.682Z,3.13
2018-05-08T09:28:38.207Z,3.10
2018-05-08T09:31:05.742Z,3.50
2018-05-08T09:33:33.272Z,3.13
2018-05-08T09:36:01.715Z,3.47
2018-05-08T09:38:29.274Z,3.20
2018-05-08T09:40:56.896Z,3.20
2018-05-08T09:43:24.357Z,2.90
2018-05-08T09:45:51.935Z,2.63
2018-05-08T09:48:19.464Z,3.07
2018-05-08T09:50:46.997Z,3.53
2018-05-08T09:53:14.544Z,2.60
2018-05-08T09:55:42.179Z,2.97
2018-05-08T09:58:09.697Z,2.63
2018-05-08T10:00:38.026Z,3.20
2018-05-08T10:03:06.605Z,2.90
2018-05-08T10:05:34.117Z,2.67
2018-05-08T10:08:01.918Z,2.70
2018-05-08T10:10:29.448Z,2.70
2018-05-08T10:12:57.277Z,2.83
2018-05-08T10:15:24.829Z,3.20
2018-05-08T10:17:52.352Z,2.80
2018-05-08T10:20:19.862Z,2.70
2018-05-08T10:22:48.206Z,2.50
2018-05-08T10:25:15.722Z,2.70
2018-05-08T10:27:43.256Z,2.43
2018-05-08T10:30:11.579Z,2.40
2018-05-08T10:32:39.108Z,2.47
2018-05-08T10:35:06.692Z,2.80
2018-05-08T10:37:34.243Z,2.43
2018-05-08T10:40:01.767Z,2.33
2018-05-08T10:42:30.084Z,2.13
2018-05-08T10:44:57.639Z,2.27
2018-05-08T10:47:25.157Z,2.40
2018-05-08T10:49:53.984Z,2.07
2018-05-08T10:52:21.586Z,2.07
2018-05-08T10:54:49.305Z,2.50
2018-05-08T10:57:16.904Z,2.20
2018-05-08T10:59:44.599Z,2.50
2018-05-08T11:02:12.207Z,2.63
2018-05-08T11:04:39.791Z,2.53
2018-05-08T11:07:07.362Z,2.23
2018-05-08T11:09:35.649Z,2.20
2018-05-08T11:12:03.958Z,2.30
2018-05-08T11:14:31.621Z,2.53
2018-05-08T11:16:59.178Z,2.50
2018-05-08T11:19:26.715Z,2.43
2018-05-08T11:21:54.359Z,2.47
2018-05-08T11:24:22.652Z,1.97
2018-05-08T11:26:50.971Z,2.47
2018-05-08T11:29:18.534Z,2.30
2018-05-08T11:31:46.046Z,2.33
2018-05-08T11:34:13.754Z,2.60
2018-05-08T11:36:41.314Z,2.13
2018-05-08T11:39:08.851Z,2.33
2018-05-08T11:41:36.485Z,2.20
2018-05-08T11:44:04.107Z,2.20
2018-05-08T11:46:31.623Z,2.40
2018-05-08T11:49:00.108Z,1.97
2018-05-08T11:51:27.827Z,1.70
2018-05-08T11:53:55.326Z,1.90
2018-05-08T11:56:22.844Z,2.10
2018-05-08T11:58:51.150Z,2.67
2018-05-08T12:01:18.666Z,2.30
2018-05-08T12:03:46.857Z,2.33
2018-05-08T12:06:26.687Z,1.87
2018-05-08T12:08:54.992Z,2.20
2018-05-08T12:11:25.559Z,1.83
2018-05-08T12:13:53.115Z,1.90
2018-05-08T12:16:20.664Z,2.10
2018-05-08T12:18:48.174Z,2.07
2018-05-08T12:21:16.648Z,1.83
2018-05-08T12:23:44.972Z,2.03
2018-05-08T12:26:12.486Z,2.40
2018-05-08T12:28:40.036Z,2.00
2018-05-08T12:31:08.363Z,2.20
2018-05-08T12:33:35.897Z,2.30
2018-05-08T12:36:04.309Z,1.80
2018-05-08T12:38:31.861Z,2.30
2018-05-08T12:40:59.400Z,1.70
2018-05-08T12:43:27.001Z,2.10
2018-05-08T12:45:54.487Z,1.83
2018-05-08T12:48:22.112Z,2.00
2018-05-08T12:50:49.653Z,2.00
2018-05-08T12:53:17.183Z,1.90
2018-05-08T12:55:48.378Z,2.10
2018-05-08T12:58:16.127Z,2.10
2018-05-08T13:00:43.641Z,2.10
2018-05-08T13:03:11.921Z,1.80
2018-05-08T13:05:40.258Z,1.97
2018-05-08T13:08:07.783Z,2.10
2018-05-08T13:10:35.346Z,2.10
2018-05-08T13:13:02.910Z,1.93
2018-05-08T13:15:30.473Z,1.90
2018-05-08T13:17:58.760Z,2.20
2018-05-08T13:20:26.311Z,2.43
2018-05-08T13:22:53.879Z,2.27
2018-05-08T13:25:21.433Z,1.80
2018-05-08T13:27:49.071Z,1.73
2018-05-08T13:30:16.586Z,2.00
2018-05-08T13:32:44.468Z,2.03
2018-05-08T13:35:12.795Z,1.90
2018-05-08T13:37:40.347Z,1.70
2018-05-08T13:40:07.913Z,2.83
2018-05-08T13:42:35.570Z,2.10
2018-05-08T13:45:03.093Z,1.70
2018-05-08T13:47:30.667Z,1.80
2018-05-08T13:49:58.222Z,1.60
2018-05-08T13:52:25.738Z,1.83
2018-05-08T13:54:53.262Z,1.70
2018-05-08T13:57:20.836Z,2.17
2018-05-08T13:59:48.819Z,1.67
2018-05-08T14:02:17.253Z,2.53
2018-05-08T14:04:44.793Z,1.77
2018-05-08T14:07:12.310Z,1.80
2018-05-08T14:09:40.589Z,1.80
2018-05-08T14:12:08.150Z,1.87
2018-05-08T14:14:35.678Z,2.07
2018-05-08T14:17:03.231Z,2.27
2018-05-08T14:19:30.779Z,1.90
2018-05-08T14:21:58.311Z,1.70
2018-05-08T14:24:26.599Z,2.53
2018-05-08T14:26:54.147Z,1.60
2018-05-08T14:29:22.450Z,1.90
2018-05-08T14:31:49.962Z,1.40
2018-05-08T14:34:18.278Z,2.10
2018-05-08T14:36:45.789Z,1.83
2018-05-08T14:39:13.322Z,2.00
2018-05-08T14:41:40.882Z,1.73
2018-05-08T14:44:08.423Z,1.63
2018-05-08T14:46:35.939Z,2.10
2018-05-08T14:49:04.270Z,2.10
2018-05-08T14:51:31.806Z,2.13
2018-05-08T14:53:59.362Z,2.07
2018-05-08T14:56:26.913Z,1.90
2018-05-08T14:58:54.493Z,1.80
2018-05-08T15:01:22.044Z,2.10
2018-05-08T15:03:49.601Z,2.27
2018-05-08T15:06:17.113Z,1.80
2018-05-08T15:08:44.732Z,1.97
2018-05-08T15:11:12.384Z,1.70
2018-05-08T15:13:39.938Z,1.70
2018-05-08T15:16:07.512Z,2.43
2018-05-08T15:18:35.081Z,2.03
2018-05-08T15:21:02.590Z,1.60
2018-05-08T15:23:30.857Z,2.37
2018-05-08T15:25:59.179Z,1.87
2018-05-08T15:28:26.714Z,1.60
2018-05-08T15:30:54.243Z,1.90
2018-05-08T15:33:22.607Z,1.80
2018-05-08T15:35:50.155Z,1.93
2018-05-08T15:38:17.674Z,2.03
2018-05-08T15:40:45.227Z,1.60
2018-05-08T15:43:12.751Z,1.97
2018-05-08T15:45:41.042Z,1.90
2018-05-08T15:48:09.359Z,1.90
2018-05-08T15:50:36.882Z,2.10
2018-05-08T15:53:05.174Z,1.90
2018-05-08T15:55:32.749Z,1.83
2018-05-08T15:58:00.282Z,1.70
2018-05-08T16:00:27.801Z,2.00
2018-05-08T16:02:55.345Z,2.07
2018-05-08T16:05:22.853Z,1.70
2018-05-08T16:07:50.377Z,1.63
2018-05-08T16:10:18.709Z,1.87
2018-05-08T16:12:46.218Z,2.00
2018-05-08T16:15:14.520Z,2.30
2018-05-08T16:17:44.223Z,2.07
2018-05-08T16:20:11.756Z,2.20
2018-05-08T16:22:39.386Z,1.80
2018-05-08T16:25:06.929Z,1.90
2018-05-08T16:27:34.494Z,2.20
2018-05-08T16:30:02.030Z,2.17
2018-05-08T16:32:29.621Z,2.00
2018-05-08T16:34:57.266Z,2.20
2018-05-08T16:37:24.803Z,1.70
2018-05-08T16:39:52.362Z,2.07
2018-05-08T16:42:19.879Z,2.10
2018-05-08T16:44:47.394Z,1.90
2018-05-08T16:47:14.954Z,2.73
2018-05-08T16:49:42.476Z,1.80
2018-05-08T16:52:10.758Z,1.63
2018-05-08T16:54:39.169Z,2.23
2018-05-08T16:57:06.742Z,2.10
2018-05-08T16:59:34.257Z,2.33
2018-05-08T17:02:02.678Z,1.90
2018-05-08T17:04:30.208Z,1.60
2018-05-08T17:06:57.796Z,2.30
2018-05-08T17:09:25.395Z,1.63
2018-05-08T17:11:53.732Z,1.80
2018-05-08T17:14:21.254Z,1.77
2018-05-08T17:16:48.843Z,2.37
2018-05-08T17:19:16.425Z,1.93
2018-05-08T17:21:43.924Z,2.00
2018-05-08T17:24:11.496Z,1.70
2018-05-08T17:26:39.045Z,1.83
2018-05-08T17:29:06.589Z,2.10
2018-05-08T17:31:34.908Z,2.80
2018-05-08T17:34:02.509Z,2.03
2018-05-08T17:36:31.862Z,2.10
2018-05-08T17:38:59.413Z,2.20
2018-05-08T17:41:26.953Z,2.33
2018-05-08T17:43:55.263Z,2.07
2018-05-08T17:46:22.927Z,2.03
2018-05-08T17:48:50.585Z,1.80
2018-05-08T17:51:18.098Z,2.00
2018-05-08T17:53:46.387Z,1.87
2018-05-08T17:56:14.704Z,2.10
2018-05-08T17:58:42.539Z,2.10
2018-05-08T18:01:10.080Z,2.40
2018-05-08T18:03:38.424Z,2.73
2018-05-08T18:06:05.955Z,2.20
2018-05-08T18:08:33.469Z,2.30
2018-05-08T18:11:01.785Z,1.90
2018-05-08T18:13:29.378Z,2.30
2018-05-08T18:15:57.327Z,2.20
2018-05-08T18:18:24.974Z,2.10
2018-05-08T18:20:52.544Z,2.47
2018-05-08T18:23:20.069Z,2.00
2018-05-08T18:25:47.632Z,2.27
2018-05-08T18:28:15.179Z,2.33
2018-05-08T18:30:43.470Z,2.87
2018-05-08T18:33:11.034Z,2.23
2018-05-08T18:35:38.554Z,2.37
2018-05-08T18:38:06.087Z,2.27
2018-05-08T18:40:33.711Z,2.13
2018-05-08T18:43:01.231Z,2.23
2018-05-08T18:45:29.557Z,2.60
2018-05-08T18:47:57.111Z,2.80
2018-05-08T18:50:24.685Z,2.47
2018-05-08T18:52:52.229Z,3.00
2018-05-08T18:55:19.795Z,2.60
2018-05-08T18:57:47.740Z,2.10
2018-05-08T19:00:21.117Z,2.63
2018-05-08T19:02:49.416Z,2.93
2018-05-08T19:05:17.007Z,2.93
2018-05-08T19:07:44.562Z,2.90
2018-05-08T19:10:12.086Z,2.37
2018-05-08T19:12:39.610Z,2.33
2018-05-08T19:15:12.878Z,2.63
2018-05-08T19:17:40.402Z,2.60
2018-05-08T19:20:08.278Z,2.77
2018-05-08T19:22:35.854Z,2.30
2018-05-08T19:25:03.447Z,2.40
2018-05-08T19:27:30.903Z,2.60
2018-05-08T19:30:04.715Z,2.47
2018-05-08T19:32:33.016Z,2.30
2018-05-08T19:35:06.257Z,2.43
2018-05-08T19:37:39.368Z,2.70
2018-05-08T19:40:06.936Z,2.40
2018-05-08T19:42:35.249Z,2.63
2018-05-08T19:45:02.848Z,2.30
2018-05-08T19:47:31.121Z,2.33
2018-05-08T19:49:58.645Z,2.40
2018-05-08T19:52:26.231Z,2.37
2018-05-08T19:54:53.745Z,3.00
2018-05-08T19:57:21.299Z,2.77
2018-05-08T19:59:48.825Z,2.90
2018-05-08T20:02:16.389Z,3.00
2018-05-08T20:04:43.898Z,3.07
2018-05-08T20:07:11.424Z,3.10
2018-05-08T20:09:39.733Z,3.13
2018-05-08T20:12:07.267Z,2.10
2018-05-08T20:14:34.801Z,2.50
2018-05-08T20:17:03.237Z,2.13
2018-05-08T20:19:30.810Z,3.03
2018-05-08T20:21:58.357Z,2.33
2018-05-08T20:24:25.904Z,3.00
2018-05-08T20:26:53.483Z,2.90
2018-05-08T20:29:20.990Z,2.30
2018-05-08T20:31:49.302Z,2.37
2018-05-08T20:34:16.832Z,2.50
2018-05-08T20:36:44.409Z,3.27
2018-05-08T20:39:11.949Z,2.93
2018-05-08T20:41:39.465Z,2.80
2018-05-08T20:44:06.988Z,2.70
2018-05-08T20:46:34.645Z,2.57
2018-05-08T20:49:02.223Z,2.70
2018-05-08T20:51:29.760Z,3.00
2018-05-08T20:53:57.302Z,2.67
2018-05-08T20:56:24.850Z,3.20
2018-05-08T20:58:53.288Z,2.57
2018-05-08T21:01:22.057Z,2.90
2018-05-08T21:03:50.348Z,2.93
2018-05-08T21:06:17.879Z,2.43
2018-05-08T21:08:45.413Z,2.77
2018-05-08T21:11:13.709Z,2.63
2018-05-08T21:13:41.270Z,3.73
2018-05-08T21:16:08.813Z,2.97
2018-05-08T21:18:36.356Z,3.20
2018-05-08T21:21:04.731Z,2.63
2018-05-08T21:23:33.039Z,3.27
2018-05-08T21:26:00.548Z,2.80
2018-05-08T21:28:33.638Z,2.87
2018-05-08T21:31:06.831Z,3.43
2018-05-08T21:33:34.364Z,3.73
2018-05-08T21:36:01.880Z,3.33
2018-05-08T21:38:29.433Z,3.00
2018-05-08T21:40:56.947Z,2.80
2018-05-08T21:43:24.495Z,2.80
2018-05-08T21:45:52.038Z,2.97
2018-05-08T21:48:19.568Z,3.33
2018-05-08T21:50:47.129Z,3.07
2018-05-08T21:53:14.647Z,3.20
2018-05-08T21:55:42.269Z,3.13
2018-05-08T21:58:09.797Z,3.07
2018-05-08T22:00:37.310Z,3.17
2018-05-08T22:03:04.868Z,3.10
2018-05-08T22:05:32.400Z,3.43
2018-05-08T22:07:59.920Z,3.30
2018-05-08T22:10:28.333Z,2.97
2018-05-08T22:12:55.864Z,3.33
2018-05-08T22:15:24.726Z,2.80
2018-05-08T22:17:53.742Z,3.33
2018-05-08T22:20:22.130Z,3.10
2018-05-08T22:22:49.595Z,2.67
2018-05-08T22:25:17.119Z,3.50
2018-05-08T22:27:44.666Z,2.90
2018-05-08T22:30:12.188Z,3.30
2018-05-08T22:32:39.712Z,2.90
2018-05-08T22:35:07.257Z,3.40
2018-05-08T22:37:35.549Z,3.20
2018-05-08T22:40:03.851Z,3.17
2018-05-08T22:42:31.382Z,3.10
2018-05-08T22:44:59.703Z,3.40
2018-05-08T22:47:27.218Z,3.37
2018-05-08T22:49:55.531Z,3.43
2018-05-08T22:52:23.060Z,3.50
2018-05-08T22:54:50.856Z,2.87
2018-05-08T22:57:18.411Z,3.30
2018-05-08T22:59:45.934Z,3.27
2018-05-08T23:02:14.240Z,3.53
2018-05-08T23:04:41.774Z,2.97
2018-05-08T23:07:09.360Z,3.47
2018-05-08T23:09:36.875Z,4.07
2018-05-08T23:12:05.213Z,3.40
2018-05-08T23:14:32.735Z,3.63
2018-05-08T23:17:00.259Z,3.50
2018-05-08T23:19:28.683Z,3.77
2018-05-08T23:21:56.235Z,4.10
2018-05-08T23:24:23.745Z,3.90
2018-05-08T23:26:51.285Z,3.80
2018-05-08T23:29:18.823Z,3.90
2018-05-08T23:31:46.387Z,3.77
2018-05-08T23:34:14.040Z,3.87
2018-05-08T23:36:41.553Z,3.93
2018-05-08T23:39:09.867Z,4.27
2018-05-08T23:41:37.417Z,4.30
2018-05-08T23:44:04.942Z,4.87
2018-05-08T23:46:33.267Z,4.53
2018-05-08T23:49:01.127Z,4.20
2018-05-08T23:51:28.629Z,4.33
2018-05-08T23:53:56.244Z,4.37
2018-05-08T23:56:23.775Z,3.83
2018-05-08T23:58:51.363Z,4.23
